createdAt,value
2022-11-05T00:00:04.988Z,1004.0
2022-11-05T00:01:04.495Z,1004.1
2022-11-05T00:02:05.537Z,1004.1
2022-11-05T00:03:04.603Z,1004.1
2022-11-05T00:04:04.564Z,1004.2
2022-11-05T00:05:04.533Z,1004.1
2022-11-05T00:06:04.501Z,1004.1
2022-11-05T00:07:08.422Z,1004.1
2022-11-05T00:08:05.147Z,1004.1
2022-11-05T00:09:05.144Z,1004.1
2022-11-05T00:10:04.473Z,1004.1
2022-11-05T00:11:04.510Z,1004.1
2022-11-05T00:12:04.544Z,1004.1
2022-11-05T00:13:06.025Z,1004.1
2022-11-05T00:14:04.588Z,1004.1
2022-11-05T00:15:04.855Z,1004.2
2022-11-05T00:16:04.474Z,1004.2
2022-11-05T00:17:04.765Z,1004.2
2022-11-05T00:18:04.521Z,1004.2
2022-11-05T00:19:11.320Z,1004.2
2022-11-05T00:20:11.483Z,1004.2
2022-11-05T00:21:04.577Z,1004.3
2022-11-05T00:22:04.525Z,1004.2
2022-11-05T00:23:11.494Z,1004.2
2022-11-05T00:24:04.220Z,1004.2
2022-11-05T00:25:04.055Z,1004.2
2022-11-05T00:26:05.210Z,1004.2
2022-11-05T00:27:03.961Z,1004.2
2022-11-05T00:28:03.971Z,1004.3
2022-11-05T00:29:03.941Z,1004.3
2022-11-05T00:30:04.302Z,1004.3
2022-11-05T00:31:04.385Z,1004.3
2022-11-05T00:32:04.187Z,1004.4
2022-11-05T00:33:04.271Z,1004.4
2022-11-05T00:34:04.061Z,1004.4
2022-11-05T00:35:03.957Z,1004.4
2022-11-05T00:36:05.208Z,1004.4
2022-11-05T00:37:05.225Z,1004.5
2022-11-05T00:38:04.017Z,1004.5
2022-11-05T00:39:03.975Z,1004.5
2022-11-05T00:40:04.000Z,1004.5
2022-11-05T00:41:04.299Z,1004.5
2022-11-05T00:42:04.292Z,1004.5
2022-11-05T00:43:05.256Z,1004.6
2022-11-05T00:44:04.602Z,1004.5
2022-11-05T00:45:05.194Z,1004.6
2022-11-05T00:46:04.020Z,1004.5
2022-11-05T00:47:04.005Z,1004.5
2022-11-05T00:48:04.263Z,1004.6
2022-11-05T00:49:04.845Z,1004.6
2022-11-05T00:50:05.902Z,1004.6
2022-11-05T00:51:03.943Z,1004.6
2022-11-05T00:52:03.938Z,1004.6
2022-11-05T00:53:03.945Z,1004.6
2022-11-05T00:54:03.893Z,1004.6
2022-11-05T00:55:03.906Z,1004.6
2022-11-05T00:56:04.371Z,1004.6
2022-11-05T00:57:04.857Z,1004.6
2022-11-05T00:58:04.020Z,1004.6
2022-11-05T00:59:03.913Z,1004.6
2022-11-05T01:00:04.300Z,1004.6
2022-11-05T01:01:03.973Z,1004.6
2022-11-05T01:02:04.016Z,1004.6
2022-11-05T01:03:03.938Z,1004.6
2022-11-05T01:04:03.956Z,1004.6
2022-11-05T01:05:03.958Z,1004.6
2022-11-05T01:06:04.408Z,1004.6
2022-11-05T01:07:03.916Z,1004.6
2022-11-05T01:08:03.937Z,1004.6
2022-11-05T01:09:04.106Z,1004.6
2022-11-05T01:11:54.042Z,1004.7
2022-11-05T01:12:04.044Z,1004.7
2022-11-05T01:13:06.532Z,1004.7
2022-11-05T01:14:03.774Z,1004.7
2022-11-05T01:15:03.837Z,1004.7
2022-11-05T01:16:03.902Z,1004.7
2022-11-05T01:17:03.776Z,1004.7
2022-11-05T01:18:03.864Z,1004.6
2022-11-05T01:19:03.790Z,1004.7
2022-11-05T01:20:03.826Z,1004.6
2022-11-05T01:21:03.784Z,1004.6
2022-11-05T01:22:03.961Z,1004.7
2022-11-05T01:23:07.576Z,1004.6
2022-11-05T01:24:04.042Z,1004.7
2022-11-05T01:25:03.804Z,1004.7
2022-11-05T01:26:03.814Z,1004.7
2022-11-05T01:27:04.771Z,1004.7
2022-11-05T01:28:04.129Z,1004.7
2022-11-05T01:29:03.811Z,1004.7
2022-11-05T01:30:03.833Z,1004.8
2022-11-05T01:31:03.813Z,1004.8
2022-11-05T01:32:11.743Z,1004.8
2022-11-05T01:33:04.284Z,1004.8
2022-11-05T01:34:04.274Z,1004.8
2022-11-05T01:35:04.309Z,1004.8
2022-11-05T01:36:04.196Z,1004.8
2022-11-05T01:37:04.200Z,1004.8
2022-11-05T01:38:04.160Z,1004.8
2022-11-05T01:39:04.467Z,1004.8
2022-11-05T01:40:04.254Z,1004.8
2022-11-05T01:41:04.251Z,1004.8
2022-11-05T01:42:06.829Z,1004.8
2022-11-05T01:43:04.179Z,1004.8
2022-11-05T01:44:04.507Z,1004.9
2022-11-05T01:45:04.246Z,1004.9
2022-11-05T01:46:04.253Z,1004.9
2022-11-05T01:47:04.182Z,1004.9
2022-11-05T01:48:04.185Z,1004.9
2022-11-05T01:49:04.208Z,1004.9
2022-11-05T01:50:04.175Z,1004.9
2022-11-05T01:51:04.235Z,1005.0
2022-11-05T01:52:04.242Z,1005.0
2022-11-05T01:53:04.158Z,1005.0
2022-11-05T01:54:04.211Z,1005.0
2022-11-05T01:55:04.182Z,1005.0
2022-11-05T01:56:04.242Z,1005.0
2022-11-05T01:57:04.449Z,1005.0
2022-11-05T01:58:04.340Z,1005.0
2022-11-05T01:59:04.186Z,1005.1
2022-11-05T02:00:04.266Z,1005.1
2022-11-05T02:01:04.250Z,1005.1
2022-11-05T02:02:05.254Z,1005.1
2022-11-05T02:03:04.295Z,1005.1
2022-11-05T02:04:04.235Z,1005.1
2022-11-05T02:05:04.535Z,1005.1
2022-11-05T02:06:04.188Z,1005.2
2022-11-05T02:07:04.257Z,1005.2
2022-11-05T02:08:04.461Z,1005.2
2022-11-05T02:09:06.166Z,1005.2
2022-11-05T02:10:04.204Z,1005.2
2022-11-05T02:11:04.220Z,1005.2
2022-11-05T02:12:04.231Z,1005.2
2022-11-05T02:13:04.219Z,1005.2
2022-11-05T02:14:04.286Z,1005.2
2022-11-05T02:15:04.249Z,1005.2
2022-11-05T02:16:04.321Z,1005.2
2022-11-05T02:17:04.289Z,1005.2
2022-11-05T02:18:05.423Z,1005.2
2022-11-05T02:19:05.209Z,1005.2
2022-11-05T02:20:04.268Z,1005.2
2022-11-05T02:21:04.258Z,1005.2
2022-11-05T02:22:04.273Z,1005.2
2022-11-05T02:23:04.294Z,1005.2
2022-11-05T02:24:04.274Z,1005.2
2022-11-05T02:25:04.226Z,1005.2
2022-11-05T02:26:04.597Z,1005.2
2022-11-05T02:27:04.271Z,1005.2
2022-11-05T02:28:04.357Z,1005.2
2022-11-05T02:29:04.268Z,1005.3
2022-11-05T02:30:04.564Z,1005.3
2022-11-05T02:31:04.264Z,1005.3
2022-11-05T02:32:04.519Z,1005.3
2022-11-05T02:33:04.252Z,1005.3
2022-11-05T02:34:04.274Z,1005.3
2022-11-05T02:35:04.231Z,1005.3
2022-11-05T02:36:04.221Z,1005.3
2022-11-05T02:37:04.262Z,1005.3
2022-11-05T02:38:05.378Z,1005.3
2022-11-05T02:39:05.127Z,1005.3
2022-11-05T02:40:04.211Z,1005.3
2022-11-05T02:41:04.223Z,1005.3
2022-11-05T02:42:05.286Z,1005.3
2022-11-05T02:43:04.234Z,1005.4
2022-11-05T02:44:04.281Z,1005.4
2022-11-05T02:45:04.212Z,1005.4
2022-11-05T02:46:04.248Z,1005.4
2022-11-05T02:47:04.250Z,1005.4
2022-11-05T02:48:04.943Z,1005.4
2022-11-05T02:49:04.276Z,1005.4
2022-11-05T02:50:31.151Z,1005.4
2022-11-05T02:51:04.297Z,1005.4
2022-11-05T02:52:06.496Z,1005.5
2022-11-05T02:53:04.342Z,1005.5
2022-11-05T02:54:04.806Z,1005.5
2022-11-05T02:55:04.245Z,1005.5
2022-11-05T02:56:05.123Z,1005.6
2022-11-05T02:57:05.214Z,1005.6
2022-11-05T02:58:04.309Z,1005.6
2022-11-05T02:59:04.318Z,1005.6
2022-11-05T03:00:04.994Z,1005.6
2022-11-05T03:01:04.309Z,1005.6
2022-11-05T03:02:04.391Z,1005.6
2022-11-05T03:03:04.331Z,1005.6
2022-11-05T03:04:04.302Z,1005.6
2022-11-05T03:05:04.850Z,1005.6
2022-11-05T03:06:04.227Z,1005.6
2022-11-05T03:07:04.252Z,1005.6
2022-11-05T03:08:04.216Z,1005.6
2022-11-05T03:09:04.242Z,1005.6
2022-11-05T03:10:04.537Z,1005.6
2022-11-05T03:11:04.304Z,1005.6
2022-11-05T03:12:04.274Z,1005.6
2022-11-05T03:13:04.249Z,1005.7
2022-11-05T03:14:04.197Z,1005.7
2022-11-05T03:15:04.346Z,1005.7
2022-11-05T03:16:04.239Z,1005.7
2022-11-05T03:17:04.219Z,1005.7
2022-11-05T03:18:04.217Z,1005.7
2022-11-05T03:19:04.224Z,1005.7
2022-11-05T03:20:04.244Z,1005.7
2022-11-05T03:21:04.206Z,1005.7
2022-11-05T03:22:04.264Z,1005.7
2022-11-05T03:23:04.241Z,1005.7
2022-11-05T03:24:04.245Z,1005.7
2022-11-05T03:25:04.231Z,1005.7
2022-11-05T03:26:04.278Z,1005.8
2022-11-05T03:27:04.259Z,1005.8
2022-11-05T03:28:04.220Z,1005.8
2022-11-05T03:29:04.256Z,1005.8
2022-11-05T03:30:04.248Z,1005.8
2022-11-05T03:31:04.286Z,1005.9
2022-11-05T03:32:04.273Z,1005.8
2022-11-05T03:33:04.452Z,1005.8
2022-11-05T03:34:04.206Z,1005.9
2022-11-05T03:35:04.301Z,1005.9
2022-11-05T03:36:04.201Z,1005.9
2022-11-05T03:37:04.501Z,1005.9
2022-11-05T03:38:04.181Z,1005.9
2022-11-05T03:39:04.209Z,1005.9
2022-11-05T03:40:04.223Z,1005.9
2022-11-05T03:41:04.226Z,1006.0
2022-11-05T03:42:04.256Z,1006.0
2022-11-05T03:43:04.217Z,1006.0
2022-11-05T03:44:04.256Z,1006.0
2022-11-05T03:46:36.926Z,1006.0
2022-11-05T03:47:04.405Z,1006.0
2022-11-05T03:48:04.379Z,1006.0
2022-11-05T03:49:04.480Z,1006.0
2022-11-05T03:50:04.344Z,1006.0
2022-11-05T03:51:04.450Z,1006.1
2022-11-05T03:52:04.424Z,1006.1
2022-11-05T03:53:04.365Z,1006.1
2022-11-05T03:54:04.490Z,1006.1
2022-11-05T03:55:04.335Z,1006.2
2022-11-05T03:56:04.626Z,1006.1
2022-11-05T03:57:04.451Z,1006.2
2022-11-05T03:58:05.247Z,1006.1
2022-11-05T03:59:04.452Z,1006.2
2022-11-05T04:00:04.450Z,1006.2
2022-11-05T04:01:04.465Z,1006.2
2022-11-05T04:02:04.602Z,1006.2
2022-11-05T04:03:04.520Z,1006.2
2022-11-05T04:04:04.482Z,1006.2
2022-11-05T04:05:04.486Z,1006.2
2022-11-05T04:06:04.432Z,1006.2
2022-11-05T04:07:04.404Z,1006.2
2022-11-05T04:08:04.414Z,1006.2
2022-11-05T04:09:11.315Z,1006.2
2022-11-05T04:10:03.913Z,1006.2
2022-11-05T04:11:03.928Z,1006.2
2022-11-05T04:12:03.886Z,1006.3
2022-11-05T04:13:03.944Z,1006.3
2022-11-05T04:14:03.973Z,1006.3
2022-11-05T04:15:03.933Z,1006.3
2022-11-05T04:16:03.894Z,1006.3
2022-11-05T04:17:03.960Z,1006.3
2022-11-05T04:18:03.914Z,1006.3
2022-11-05T04:19:03.901Z,1006.3
2022-11-05T04:20:03.987Z,1006.3
2022-11-05T04:21:03.969Z,1006.3
2022-11-05T04:22:03.927Z,1006.3
2022-11-05T04:23:03.940Z,1006.3
2022-11-05T04:24:03.972Z,1006.3
2022-11-05T04:25:03.922Z,1006.3
2022-11-05T04:26:03.894Z,1006.3
2022-11-05T04:27:03.880Z,1006.3
2022-11-05T04:28:04.822Z,1006.3
2022-11-05T04:29:07.777Z,1006.3
2022-11-05T04:30:03.935Z,1006.3
2022-11-05T04:31:03.933Z,1006.4
2022-11-05T04:32:03.897Z,1006.4
2022-11-05T04:33:03.991Z,1006.4
2022-11-05T04:34:04.766Z,1006.5
2022-11-05T04:35:03.884Z,1006.5
2022-11-05T04:36:03.883Z,1006.5
2022-11-05T04:37:03.928Z,1006.5
2022-11-05T04:38:03.932Z,1006.5
2022-11-05T04:39:04.762Z,1006.5
2022-11-05T04:40:03.897Z,1006.5
2022-11-05T04:41:03.945Z,1006.6
2022-11-05T04:42:03.913Z,1006.6
2022-11-05T04:43:03.892Z,1006.5
2022-11-05T04:44:04.656Z,1006.6
2022-11-05T04:45:04.228Z,1006.6
2022-11-05T04:46:03.897Z,1006.5
2022-11-05T04:47:03.940Z,1006.6
2022-11-05T04:48:03.860Z,1006.6
2022-11-05T04:49:04.134Z,1006.6
2022-11-05T04:50:03.925Z,1006.5
2022-11-05T04:51:03.946Z,1006.6
2022-11-05T04:52:04.120Z,1006.6
2022-11-05T04:53:03.914Z,1006.6
2022-11-05T04:54:03.856Z,1006.6
2022-11-05T04:55:04.147Z,1006.6
2022-11-05T04:56:03.947Z,1006.6
2022-11-05T04:57:03.961Z,1006.5
2022-11-05T04:58:03.944Z,1006.6
2022-11-05T04:59:04.859Z,1006.6
2022-11-05T05:00:03.915Z,1006.6
2022-11-05T05:01:04.039Z,1006.6
2022-11-05T05:02:04.261Z,1006.6
2022-11-05T05:03:03.933Z,1006.6
2022-11-05T05:04:03.956Z,1006.6
2022-11-05T05:05:03.953Z,1006.6
2022-11-05T05:06:04.329Z,1006.6
2022-11-05T05:07:03.861Z,1006.6
2022-11-05T05:08:03.900Z,1006.6
2022-11-05T05:09:03.906Z,1006.6
2022-11-05T05:10:03.893Z,1006.6
2022-11-05T05:11:03.904Z,1006.7
2022-11-05T05:12:03.967Z,1006.7
2022-11-05T05:13:03.997Z,1006.7
2022-11-05T05:14:03.947Z,1006.7
2022-11-05T05:15:03.944Z,1006.7
2022-11-05T05:16:03.948Z,1006.7
2022-11-05T05:17:03.941Z,1006.7
2022-11-05T05:18:03.887Z,1006.8
2022-11-05T05:19:03.863Z,1006.8
2022-11-05T05:20:03.898Z,1006.8
2022-11-05T05:21:04.180Z,1006.8
2022-11-05T05:22:03.876Z,1006.8
2022-11-05T05:23:03.883Z,1006.7
2022-11-05T05:24:03.950Z,1006.8
2022-11-05T05:25:03.928Z,1006.8
2022-11-05T05:26:04.116Z,1006.8
2022-11-05T05:27:03.897Z,1006.8
2022-11-05T05:28:03.922Z,1006.8
2022-11-05T05:29:03.929Z,1006.8
2022-11-05T05:30:04.106Z,1006.8
2022-11-05T05:31:03.935Z,1006.8
2022-11-05T05:32:03.937Z,1006.8
2022-11-05T05:33:03.969Z,1006.8
2022-11-05T05:34:03.880Z,1006.8
2022-11-05T05:35:03.863Z,1006.9
2022-11-05T05:36:10.948Z,1006.9
2022-11-05T05:37:03.861Z,1006.9
2022-11-05T05:38:03.885Z,1006.9
2022-11-05T05:39:03.914Z,1006.9
2022-11-05T05:40:03.934Z,1006.9
2022-11-05T05:41:03.902Z,1006.9
2022-11-05T05:42:04.000Z,1007.0
2022-11-05T05:43:03.940Z,1007.0
2022-11-05T05:44:04.108Z,1007.0
2022-11-05T05:45:03.941Z,1007.0
2022-11-05T05:46:03.897Z,1007.0
2022-11-05T05:47:03.982Z,1007.1
2022-11-05T05:48:03.927Z,1007.1
2022-11-05T05:49:07.997Z,1007.1
2022-11-05T05:50:04.097Z,1007.1
2022-11-05T05:51:03.904Z,1007.2
2022-11-05T05:52:03.971Z,1007.1
2022-11-05T05:53:03.860Z,1007.2
2022-11-05T05:54:03.923Z,1007.2
2022-11-05T05:55:03.946Z,1007.2
2022-11-05T05:56:03.906Z,1007.2
2022-11-05T05:57:03.875Z,1007.2
2022-11-05T05:58:03.900Z,1007.2
2022-11-05T05:59:03.914Z,1007.2
2022-11-05T06:00:03.906Z,1007.2
2022-11-05T06:01:03.917Z,1007.3
2022-11-05T06:02:03.978Z,1007.3
2022-11-05T06:03:03.919Z,1007.3
2022-11-05T06:04:03.939Z,1007.3
2022-11-05T06:05:03.909Z,1007.3
2022-11-05T06:06:03.864Z,1007.3
2022-11-05T06:07:03.939Z,1007.3
2022-11-05T06:08:03.904Z,1007.4
2022-11-05T06:09:03.901Z,1007.4
2022-11-05T06:10:03.936Z,1007.4
2022-11-05T06:11:04.073Z,1007.4
2022-11-05T06:12:03.928Z,1007.4
2022-11-05T06:13:03.961Z,1007.5
2022-11-05T06:14:03.917Z,1007.5
2022-11-05T06:15:03.937Z,1007.5
2022-11-05T06:16:03.913Z,1007.5
2022-11-05T06:17:03.910Z,1007.5
2022-11-05T06:18:03.872Z,1007.5
2022-11-05T06:19:03.867Z,1007.5
2022-11-05T06:20:03.924Z,1007.5
2022-11-05T06:21:03.924Z,1007.5
2022-11-05T06:22:03.961Z,1007.6
2022-11-05T06:23:03.943Z,1007.6
2022-11-05T06:24:03.890Z,1007.6
2022-11-05T06:25:03.934Z,1007.6
2022-11-05T06:26:03.941Z,1007.6
2022-11-05T06:27:03.946Z,1007.6
2022-11-05T06:28:04.211Z,1007.6
2022-11-05T06:30:54.094Z,1007.6
2022-11-05T06:31:03.737Z,1007.6
2022-11-05T06:32:03.794Z,1007.7
2022-11-05T06:33:03.802Z,1007.7
2022-11-05T06:34:03.785Z,1007.7
2022-11-05T06:35:04.742Z,1007.7
2022-11-05T06:36:03.819Z,1007.8
2022-11-05T06:37:03.728Z,1007.8
2022-11-05T06:38:03.760Z,1007.8
2022-11-05T06:39:03.811Z,1007.8
2022-11-05T06:40:04.049Z,1007.8
2022-11-05T06:41:09.834Z,1007.8
2022-11-05T06:42:17.850Z,1007.8
2022-11-05T06:43:04.080Z,1007.8
2022-11-05T06:44:03.857Z,1007.8
2022-11-05T06:45:04.051Z,1007.8
2022-11-05T06:46:03.938Z,1007.8
2022-11-05T06:47:03.758Z,1007.8
2022-11-05T06:48:03.829Z,1007.9
2022-11-05T06:49:03.774Z,1007.9
2022-11-05T06:50:04.066Z,1007.9
2022-11-05T06:51:04.704Z,1007.9
2022-11-05T06:52:03.864Z,1007.9
2022-11-05T06:53:04.080Z,1008.0
2022-11-05T06:54:03.796Z,1008.0
2022-11-05T06:55:04.501Z,1007.9
2022-11-05T06:56:03.774Z,1008.0
2022-11-05T06:57:03.843Z,1008.0
2022-11-05T06:58:03.803Z,1008.0
2022-11-05T06:59:03.805Z,1008.0
2022-11-05T07:00:07.842Z,1008.1
2022-11-05T07:01:03.868Z,1008.0
2022-11-05T07:02:03.820Z,1008.1
2022-11-05T07:03:04.088Z,1008.0
2022-11-05T07:04:03.795Z,1008.0
2022-11-05T07:05:03.717Z,1008.1
2022-11-05T07:06:03.794Z,1008.1
2022-11-05T07:07:03.982Z,1008.0
2022-11-05T07:08:03.858Z,1008.1
2022-11-05T07:09:03.836Z,1008.1
2022-11-05T07:10:03.820Z,1008.1
2022-11-05T07:11:03.800Z,1008.1
2022-11-05T07:12:03.767Z,1008.2
2022-11-05T07:13:07.719Z,1008.2
2022-11-05T07:14:03.794Z,1008.2
2022-11-05T07:15:03.775Z,1008.3
2022-11-05T07:16:03.878Z,1008.3
2022-11-05T07:17:03.817Z,1008.3
2022-11-05T07:18:03.785Z,1008.3
2022-11-05T07:19:03.747Z,1008.3
2022-11-05T07:21:54.018Z,1008.4
2022-11-05T07:22:03.816Z,1008.5
2022-11-05T07:23:04.506Z,1008.5
2022-11-05T07:24:03.694Z,1008.5
2022-11-05T07:25:04.001Z,1008.5
2022-11-05T07:26:03.674Z,1008.5
2022-11-05T07:27:04.199Z,1008.5
2022-11-05T07:28:03.699Z,1008.5
2022-11-05T07:29:03.713Z,1008.5
2022-11-05T07:30:03.777Z,1008.6
2022-11-05T07:31:03.675Z,1008.5
2022-11-05T07:32:04.036Z,1008.6
2022-11-05T07:33:03.739Z,1008.6
2022-11-05T07:34:03.681Z,1008.6
2022-11-05T07:35:03.733Z,1008.7
2022-11-05T07:36:04.020Z,1008.7
2022-11-05T07:37:03.648Z,1008.7
2022-11-05T07:38:03.678Z,1008.7
2022-11-05T07:39:03.745Z,1008.7
2022-11-05T07:40:03.694Z,1008.7
2022-11-05T07:41:03.735Z,1008.7
2022-11-05T07:42:03.734Z,1008.7
2022-11-05T07:43:03.684Z,1008.7
2022-11-05T07:44:03.947Z,1008.7
2022-11-05T07:45:04.027Z,1008.8
2022-11-05T07:46:03.661Z,1008.7
2022-11-05T07:47:03.762Z,1008.7
2022-11-05T07:48:03.701Z,1008.7
2022-11-05T07:49:04.658Z,1008.8
2022-11-05T07:50:03.695Z,1008.8
2022-11-05T07:51:03.700Z,1008.8
2022-11-05T07:52:03.769Z,1008.8
2022-11-05T07:53:03.776Z,1008.8
2022-11-05T07:54:03.732Z,1008.8
2022-11-05T07:55:03.688Z,1008.9
2022-11-05T07:56:04.006Z,1008.9
2022-11-05T07:57:03.740Z,1008.9
2022-11-05T07:58:03.776Z,1008.9
2022-11-05T07:59:04.026Z,1008.9
2022-11-05T08:00:03.661Z,1008.9
2022-11-05T08:01:03.888Z,1009.0
2022-11-05T08:02:03.915Z,1009.0
2022-11-05T08:03:07.909Z,1009.0
2022-11-05T08:04:04.633Z,1009.0
2022-11-05T08:05:03.658Z,1009.0
2022-11-05T08:06:03.705Z,1009.0
2022-11-05T08:07:03.768Z,1009.1
2022-11-05T08:08:04.613Z,1009.1
2022-11-05T08:09:03.976Z,1009.1
2022-11-05T08:10:03.974Z,1009.1
2022-11-05T08:11:03.677Z,1009.2
2022-11-05T08:12:03.718Z,1009.2
2022-11-05T08:13:03.712Z,1009.1
2022-11-05T08:14:03.705Z,1009.2
2022-11-05T08:15:03.728Z,1009.2
2022-11-05T08:16:04.169Z,1009.2
2022-11-05T08:17:03.679Z,1009.2
2022-11-05T08:18:03.768Z,1009.2
2022-11-05T08:19:03.783Z,1009.2
2022-11-05T08:20:03.780Z,1009.2
2022-11-05T08:21:03.849Z,1009.2
2022-11-05T08:22:03.719Z,1009.2
2022-11-05T08:23:04.747Z,1009.2
2022-11-05T08:24:04.705Z,1009.2
2022-11-05T08:25:06.785Z,1009.3
2022-11-05T08:26:04.042Z,1009.3
2022-11-05T08:27:03.762Z,1009.2
2022-11-05T08:28:03.746Z,1009.2
2022-11-05T08:29:03.834Z,1009.2
2022-11-05T08:30:30.136Z,1009.3
2022-11-05T08:31:04.619Z,1009.3
2022-11-05T08:32:03.962Z,1009.3
2022-11-05T08:33:03.837Z,1009.3
2022-11-05T08:34:03.917Z,1009.4
2022-11-05T08:35:04.305Z,1009.4
2022-11-05T08:36:03.929Z,1009.4
2022-11-05T08:37:03.887Z,1009.4
2022-11-05T08:38:04.853Z,1009.4
2022-11-05T08:39:03.932Z,1009.4
2022-11-05T08:40:04.833Z,1009.4
2022-11-05T08:41:03.914Z,1009.4
2022-11-05T08:42:03.878Z,1009.4
2022-11-05T08:43:03.876Z,1009.3
2022-11-05T08:44:03.894Z,1009.4
2022-11-05T08:45:03.847Z,1009.3
2022-11-05T08:46:03.921Z,1009.3
2022-11-05T08:47:03.849Z,1009.3
2022-11-05T08:48:04.141Z,1009.3
2022-11-05T08:49:03.892Z,1009.3
2022-11-05T08:50:03.895Z,1009.3
2022-11-05T08:51:03.898Z,1009.3
2022-11-05T08:52:03.958Z,1009.3
2022-11-05T08:53:04.838Z,1009.3
2022-11-05T08:54:03.889Z,1009.3
2022-11-05T08:55:03.876Z,1009.3
2022-11-05T08:56:03.920Z,1009.3
2022-11-05T08:57:03.863Z,1009.3
2022-11-05T08:58:03.969Z,1009.3
2022-11-05T08:59:03.868Z,1009.4
2022-11-05T09:00:03.846Z,1009.3
2022-11-05T09:01:05.400Z,1009.3
2022-11-05T09:02:04.338Z,1009.4
2022-11-05T09:03:03.866Z,1009.4
2022-11-05T09:04:04.235Z,1009.4
2022-11-05T09:05:03.897Z,1009.5
2022-11-05T09:06:03.879Z,1009.5
2022-11-05T09:07:03.898Z,1009.4
2022-11-05T09:08:03.892Z,1009.4
2022-11-05T09:09:04.523Z,1009.4
2022-11-05T09:10:04.351Z,1009.4
2022-11-05T09:11:03.870Z,1009.4
2022-11-05T09:12:12.158Z,1009.4
2022-11-05T09:13:03.872Z,1009.4
2022-11-05T09:14:03.941Z,1009.4
2022-11-05T09:15:03.938Z,1009.4
2022-11-05T09:16:03.963Z,1009.5
2022-11-05T09:17:03.912Z,1009.5
2022-11-05T09:18:03.877Z,1009.4
2022-11-05T09:19:03.881Z,1009.4
2022-11-05T09:20:03.984Z,1009.5
2022-11-05T09:21:04.079Z,1009.5
2022-11-05T09:22:04.636Z,1009.5
2022-11-05T09:23:03.922Z,1009.5
2022-11-05T09:24:03.930Z,1009.5
2022-11-05T09:25:03.903Z,1009.5
2022-11-05T09:26:03.925Z,1009.5
2022-11-05T09:27:03.888Z,1009.6
2022-11-05T09:28:03.934Z,1009.6
2022-11-05T09:29:03.875Z,1009.5
2022-11-05T09:30:03.869Z,1009.5
2022-11-05T09:31:03.940Z,1009.5
2022-11-05T09:32:04.627Z,1009.5
2022-11-05T09:33:03.886Z,1009.6
2022-11-05T09:34:03.903Z,1009.5
2022-11-05T09:35:03.911Z,1009.5
2022-11-05T09:36:03.948Z,1009.5
2022-11-05T09:37:03.866Z,1009.5
2022-11-05T09:38:04.130Z,1009.5
2022-11-05T09:39:04.069Z,1009.6
2022-11-05T09:40:03.865Z,1009.6
2022-11-05T09:41:03.861Z,1009.7
2022-11-05T09:42:03.912Z,1009.7
2022-11-05T09:43:03.883Z,1009.7
2022-11-05T09:44:03.915Z,1009.7
2022-11-05T09:45:03.868Z,1009.7
2022-11-05T09:46:03.904Z,1009.7
2022-11-05T09:47:03.926Z,1009.7
2022-11-05T09:48:04.203Z,1009.7
2022-11-05T09:49:03.889Z,1009.7
2022-11-05T09:50:03.855Z,1009.8
2022-11-05T09:51:03.905Z,1009.7
2022-11-05T09:52:04.801Z,1009.8
2022-11-05T09:53:03.852Z,1009.8
2022-11-05T09:54:03.988Z,1009.8
2022-11-05T09:55:03.906Z,1009.8
2022-11-05T09:56:03.879Z,1009.8
2022-11-05T09:57:03.884Z,1009.8
2022-11-05T09:58:03.937Z,1009.8
2022-11-05T09:59:03.932Z,1009.8
2022-11-05T10:00:03.934Z,1009.9
2022-11-05T10:01:04.903Z,1009.9
2022-11-05T10:02:04.131Z,1009.8
2022-11-05T10:03:03.920Z,1009.9
2022-11-05T10:04:03.870Z,1009.8
2022-11-05T10:05:09.477Z,1009.8
2022-11-05T10:06:03.900Z,1009.8
2022-11-05T10:07:03.896Z,1009.8
2022-11-05T10:08:03.892Z,1009.9
2022-11-05T10:09:04.177Z,1009.9
2022-11-05T10:10:03.939Z,1009.8
2022-11-05T10:11:03.906Z,1009.9
2022-11-05T10:12:04.013Z,1009.9
2022-11-05T10:13:03.895Z,1009.9
2022-11-05T10:14:03.932Z,1009.9
2022-11-05T10:15:03.913Z,1009.9
2022-11-05T10:16:03.906Z,1009.9
2022-11-05T10:17:03.889Z,1009.9
2022-11-05T10:18:03.968Z,1009.9
2022-11-05T10:19:03.880Z,1009.9
2022-11-05T10:20:03.877Z,1010.0
2022-11-05T10:21:03.919Z,1010.0
2022-11-05T10:22:06.881Z,1010.0
2022-11-05T10:23:03.921Z,1010.0
2022-11-05T10:24:04.038Z,1010.0
2022-11-05T10:25:03.915Z,1010.0
2022-11-05T10:26:04.199Z,1010.0
2022-11-05T10:27:04.153Z,1010.0
2022-11-05T10:28:03.936Z,1010.0
2022-11-05T10:29:04.003Z,1010.1
2022-11-05T10:30:04.312Z,1010.0
2022-11-05T10:31:04.123Z,1010.0
2022-11-05T10:32:03.924Z,1010.1
2022-11-05T10:33:04.828Z,1010.1
2022-11-05T10:34:03.935Z,1010.1
2022-11-05T10:35:03.919Z,1010.1
2022-11-05T10:36:04.061Z,1010.1
2022-11-05T10:37:03.935Z,1010.2
2022-11-05T10:38:03.955Z,1010.2
2022-11-05T10:39:03.984Z,1010.2
2022-11-05T10:40:03.922Z,1010.1
2022-11-05T10:41:03.974Z,1010.1
2022-11-05T10:42:04.872Z,1010.2
2022-11-05T10:43:03.948Z,1010.2
2022-11-05T10:44:03.913Z,1010.2
2022-11-05T10:46:39.482Z,1010.2
2022-11-05T10:46:43.489Z,1010.2
2022-11-05T10:47:04.242Z,1010.2
2022-11-05T10:48:03.958Z,1010.2
2022-11-05T10:49:04.008Z,1010.2
2022-11-05T10:50:03.924Z,1010.2
2022-11-05T10:51:04.678Z,1010.2
2022-11-05T10:52:03.898Z,1010.2
2022-11-05T10:53:04.025Z,1010.2
2022-11-05T10:54:04.064Z,1010.2
2022-11-05T10:55:03.921Z,1010.2
2022-11-05T10:56:04.147Z,1010.2
2022-11-05T10:57:03.912Z,1010.2
2022-11-05T10:58:03.929Z,1010.2
2022-11-05T10:59:07.950Z,1010.2
2022-11-05T11:00:03.925Z,1010.2
2022-11-05T11:01:04.192Z,1010.2
2022-11-05T11:02:04.829Z,1010.2
2022-11-05T11:03:03.969Z,1010.2
2022-11-05T11:04:03.927Z,1010.2
2022-11-05T11:05:04.739Z,1010.2
2022-11-05T11:06:04.000Z,1010.2
2022-11-05T11:07:03.961Z,1010.2
2022-11-05T11:08:03.898Z,1010.2
2022-11-05T11:09:03.877Z,1010.2
2022-11-05T11:10:03.985Z,1010.1
2022-11-05T11:11:03.977Z,1010.1
2022-11-05T11:12:04.333Z,1010.0
2022-11-05T11:13:04.010Z,1010.1
2022-11-05T11:14:04.162Z,1010.0
2022-11-05T11:15:03.901Z,1010.1
2022-11-05T11:16:03.934Z,1010.1
2022-11-05T11:17:03.902Z,1010.1
2022-11-05T11:18:04.161Z,1010.1
2022-11-05T11:19:05.019Z,1010.1
2022-11-05T11:20:03.911Z,1010.1
2022-11-05T11:21:04.248Z,1010.1
2022-11-05T11:22:04.013Z,1010.0
2022-11-05T11:23:03.929Z,1010.0
2022-11-05T11:24:04.051Z,1010.0
2022-11-05T11:25:04.274Z,1010.0
2022-11-05T11:26:05.059Z,1010.0
2022-11-05T11:27:06.805Z,1010.1
2022-11-05T11:28:03.925Z,1010.1
2022-11-05T11:29:03.922Z,1010.0
2022-11-05T11:30:04.070Z,1010.0
2022-11-05T11:31:03.943Z,1010.0
2022-11-05T11:32:03.996Z,1010.0
2022-11-05T11:33:03.922Z,1010.0
2022-11-05T11:34:04.740Z,1010.0
2022-11-05T11:35:04.115Z,1010.0
2022-11-05T11:36:04.276Z,1010.0
2022-11-05T11:37:03.887Z,1010.0
2022-11-05T11:38:03.874Z,1010.1
2022-11-05T11:39:03.889Z,1010.0
2022-11-05T11:40:03.877Z,1010.0
2022-11-05T11:41:03.905Z,1010.0
2022-11-05T11:42:04.813Z,1010.0
2022-11-05T11:43:03.887Z,1010.0
2022-11-05T11:44:03.999Z,1010.1
2022-11-05T11:45:03.891Z,1010.0
2022-11-05T11:46:06.853Z,1010.0
2022-11-05T11:47:03.889Z,1010.0
2022-11-05T11:48:04.465Z,1010.0
2022-11-05T11:49:03.899Z,1010.0
2022-11-05T11:50:03.920Z,1010.0
2022-11-05T11:51:03.900Z,1010.0
2022-11-05T11:52:03.884Z,1010.0
2022-11-05T11:53:03.891Z,1010.0
2022-11-05T11:54:04.031Z,1010.0
2022-11-05T11:55:03.883Z,1010.0
2022-11-05T11:56:04.054Z,1010.0
2022-11-05T11:57:03.885Z,1010.0
2022-11-05T11:58:03.898Z,1010.0
2022-11-05T11:59:03.932Z,1010.0
2022-11-05T12:00:09.837Z,1010.0
2022-11-05T12:01:03.881Z,1010.0
2022-11-05T12:02:04.003Z,1010.0
2022-11-05T12:03:03.954Z,1010.0
2022-11-05T12:04:03.913Z,1010.0
2022-11-05T12:05:03.890Z,1010.0
2022-11-05T12:06:03.877Z,1010.0
2022-11-05T12:07:03.894Z,1009.9
2022-11-05T12:08:03.912Z,1009.9
2022-11-05T12:09:06.924Z,1010.0
2022-11-05T12:10:03.908Z,1010.0
2022-11-05T12:11:03.947Z,1009.9
2022-11-05T12:12:03.879Z,1009.9
2022-11-05T12:13:03.892Z,1009.9
2022-11-05T12:14:03.896Z,1010.0
2022-11-05T12:15:03.899Z,1010.0
2022-11-05T12:16:03.942Z,1009.9
2022-11-05T12:17:03.972Z,1010.0
2022-11-05T12:18:03.889Z,1009.9
2022-11-05T12:19:03.900Z,1009.9
2022-11-05T12:20:03.900Z,1009.9
2022-11-05T12:21:03.901Z,1009.9
2022-11-05T12:23:35.326Z,1009.9
2022-11-05T12:24:04.006Z,1009.9
2022-11-05T12:25:04.007Z,1009.9
2022-11-05T12:26:04.021Z,1009.9
2022-11-05T12:27:04.018Z,1009.8
2022-11-05T12:28:04.060Z,1009.8
2022-11-05T12:29:18.565Z,1009.9
2022-11-05T12:30:04.021Z,1009.9
2022-11-05T12:31:04.003Z,1009.9
2022-11-05T12:32:04.040Z,1009.9
2022-11-05T12:33:04.087Z,1009.8